createdAt,value
2017-12-20T00:01:05.669Z,94.93
2017-12-20T00:02:14.780Z,94.18
2017-12-20T00:03:23.608Z,94.46
2017-12-20T00:04:32.688Z,94.18
2017-12-20T00:05:41.516Z,94.27
2017-12-20T00:06:50.343Z,93.89
2017-12-20T00:07:59.172Z,94.08
2017-12-20T00:09:07.999Z,93.7
2017-12-20T00:10:17.077Z,93.6
2017-12-20T00:11:25.905Z,93.65
2017-12-20T00:12:34.735Z,93.41
2017-12-20T00:13:43.564Z,93.32
2017-12-20T00:14:52.392Z,93.18
2017-12-20T00:16:01.368Z,93.32
2017-12-20T00:17:10.197Z,93.27
2017-12-20T00:18:19.028Z,93.18
2017-12-20T00:19:27.855Z,93.27
2017-12-20T00:20:36.685Z,93.18
2017-12-20T00:21:45.512Z,93.04
2017-12-20T00:22:54.339Z,92.94
2017-12-20T00:24:03.169Z,93.18
2017-12-20T00:25:11.996Z,93.27
2017-12-20T00:26:20.826Z,93.23
2017-12-20T00:27:29.855Z,93.41
2017-12-20T00:28:38.684Z,93.08
2017-12-20T00:29:47.510Z,93.65
2017-12-20T00:30:56.339Z,93.56
2017-12-20T00:32:05.439Z,93.37
2017-12-20T00:33:14.702Z,93.46
2017-12-20T00:34:23.532Z,93.56
2017-12-20T00:35:32.359Z,93.51
2017-12-20T00:36:41.188Z,93.37
2017-12-20T00:37:50.017Z,93.46
2017-12-20T00:38:59.097Z,93.51
2017-12-20T00:40:07.927Z,93.41
2017-12-20T00:41:16.751Z,92.75
2017-12-20T00:42:25.579Z,92.75
2017-12-20T00:43:34.407Z,92.56
2017-12-20T00:44:43.486Z,92.75
2017-12-20T00:45:52.312Z,92.85
2017-12-20T00:47:01.140Z,92.66
2017-12-20T00:48:09.970Z,92.47
2017-12-20T00:49:18.796Z,92.66
2017-12-20T00:50:27.926Z,92.18
2017-12-20T00:51:37.027Z,92.47
2017-12-20T00:52:45.854Z,92.75
2017-12-20T00:53:54.786Z,92.56
2017-12-20T00:55:03.609Z,92.75
2017-12-20T00:56:12.436Z,92.56
2017-12-20T00:57:21.269Z,92.18
2017-12-20T00:58:30.099Z,92.09
2017-12-20T00:59:38.928Z,91.89
2017-12-20T01:00:47.755Z,91.89
2017-12-20T01:01:56.732Z,91.8
2017-12-20T01:03:05.558Z,92.09
2017-12-20T01:04:14.661Z,91.61
2017-12-20T01:05:23.489Z,91.33
2017-12-20T01:06:32.317Z,91.61
2017-12-20T01:07:41.145Z,91.61
2017-12-20T01:08:49.974Z,91.52
2017-12-20T01:09:58.802Z,90.95
2017-12-20T01:11:07.629Z,91.42
2017-12-20T01:12:16.456Z,91.14
2017-12-20T01:13:25.333Z,91.24
2017-12-20T01:14:34.162Z,91.24
2017-12-20T01:15:42.992Z,90.85
2017-12-20T01:16:51.820Z,90.76
2017-12-20T01:18:00.648Z,90.76
2017-12-20T01:19:09.478Z,90.66
2017-12-20T01:20:18.306Z,90.57
2017-12-20T01:21:27.136Z,90.76
2017-12-20T01:22:35.962Z,90.95
2017-12-20T01:23:45.073Z,90.95
2017-12-20T01:24:54.599Z,90.76
2017-12-20T01:26:03.477Z,91.04
2017-12-20T01:27:12.306Z,90.85
2017-12-20T01:28:21.138Z,90.76
2017-12-20T01:29:29.966Z,90.38
2017-12-20T01:30:38.895Z,91.14
2017-12-20T01:31:47.722Z,90.76
2017-12-20T01:32:56.550Z,90.76
2017-12-20T01:34:05.377Z,90.47
2017-12-20T01:35:14.477Z,90.09
2017-12-20T01:36:23.606Z,90.28
2017-12-20T01:37:32.432Z,90.09
2017-12-20T01:38:41.261Z,90.09
2017-12-20T01:39:50.088Z,90.09
2017-12-20T01:40:58.920Z,90.09
2017-12-20T01:42:08.071Z,90.09
2017-12-20T01:43:17.174Z,90.28
2017-12-20T01:44:26.005Z,90.19
2017-12-20T01:45:34.835Z,90.28
2017-12-20T01:46:43.661Z,90.19
2017-12-20T01:47:52.590Z,90.47
2017-12-20T01:49:01.419Z,90.38
2017-12-20T01:50:10.245Z,90.19
2017-12-20T01:51:19.081Z,90.47
2017-12-20T01:52:27.900Z,90.47
2017-12-20T01:53:37.029Z,90.28
2017-12-20T01:54:45.857Z,90.28
2017-12-20T01:55:54.684Z,89.81
2017-12-20T01:57:03.514Z,89.53
2017-12-20T01:58:12.344Z,89.72
2017-12-20T01:59:21.573Z,89.72
2017-12-20T02:00:30.403Z,89.9
2017-12-20T02:01:39.233Z,89.33
2017-12-20T02:02:48.057Z,89.53
2017-12-20T02:03:56.886Z,89.14
2017-12-20T02:05:05.997Z,89.47
2017-12-20T02:06:15.099Z,89.86
2017-12-20T02:07:23.928Z,89.95
2017-12-20T02:08:32.760Z,89.33
2017-12-20T02:09:41.860Z,89.33
2017-12-20T02:10:51.089Z,89.28
2017-12-20T02:11:59.916Z,89.57
2017-12-20T02:13:08.746Z,89.43
2017-12-20T02:14:17.853Z,89.67
2017-12-20T02:15:26.680Z,89.57
2017-12-20T02:16:35.608Z,89.76
2017-12-20T02:17:44.441Z,89.57
2017-12-20T02:18:53.825Z,89.38
2017-12-20T02:20:02.651Z,89.38
2017-12-20T02:21:11.480Z,89.76
2017-12-20T02:22:20.613Z,89.19
2017-12-20T02:23:29.435Z,89.28
2017-12-20T02:24:38.264Z,89.09
2017-12-20T02:25:47.092Z,89.28
2017-12-20T02:26:56.192Z,89.19
2017-12-20T02:28:05.419Z,89.28
2017-12-20T02:29:14.250Z,89.57
2017-12-20T02:30:23.080Z,89.19
2017-12-20T02:31:32.179Z,89.67
2017-12-20T02:32:41.007Z,89.67
2017-12-20T02:33:50.040Z,90.05
2017-12-20T02:34:59.427Z,89.86
2017-12-20T02:36:08.531Z,90.05
2017-12-20T02:37:17.357Z,90.05
2017-12-20T02:38:26.189Z,89.86
2017-12-20T02:39:35.500Z,89.38
2017-12-20T02:40:44.332Z,89.38
2017-12-20T02:41:53.432Z,89.28
2017-12-20T02:43:02.511Z,89.57
2017-12-20T02:44:11.340Z,89.76
2017-12-20T02:45:20.215Z,89.09
2017-12-20T02:46:29.044Z,89.28
2017-12-20T02:47:38.186Z,89.47
2017-12-20T02:48:46.983Z,89.57
2017-12-20T02:49:55.811Z,89.09
2017-12-20T02:51:04.920Z,89.76
2017-12-20T02:52:13.748Z,89.38
2017-12-20T02:53:22.573Z,89.28
2017-12-20T02:54:31.681Z,89.28
2017-12-20T02:55:40.512Z,89.38
2017-12-20T02:56:49.618Z,89.95
2017-12-20T02:57:58.727Z,89.67
2017-12-20T02:59:07.556Z,89.28
2017-12-20T03:00:16.385Z,89.38
2017-12-20T03:01:25.212Z,89.57
2017-12-20T03:02:34.040Z,89.38
2017-12-20T03:03:42.869Z,89.38
2017-12-20T03:04:51.699Z,89.38
2017-12-20T03:06:00.854Z,89.38
2017-12-20T03:07:09.684Z,89.76
2017-12-20T03:08:18.763Z,89.57
2017-12-20T03:09:27.876Z,89.47
2017-12-20T03:10:36.705Z,89.38
2017-12-20T03:11:45.534Z,90.05
2017-12-20T03:12:54.362Z,89.38
2017-12-20T03:14:03.491Z,89.95
2017-12-20T03:15:12.316Z,89.38
2017-12-20T03:16:21.145Z,89.14
2017-12-20T03:17:29.972Z,89.57
2017-12-20T03:18:38.843Z,89.19
2017-12-20T03:19:47.728Z,89.67
2017-12-20T03:20:56.557Z,89.09
2017-12-20T03:22:05.385Z,89.38
2017-12-20T03:23:14.213Z,89.67
2017-12-20T03:24:23.044Z,89.19
2017-12-20T03:25:32.021Z,89.28
2017-12-20T03:26:40.850Z,89.09
2017-12-20T03:27:49.680Z,89.57
2017-12-20T03:28:58.508Z,89.09
2017-12-20T03:30:07.336Z,89.28
2017-12-20T03:31:16.466Z,89.38
2017-12-20T03:32:25.292Z,89.28
2017-12-20T03:33:34.124Z,89.47
2017-12-20T03:34:43.225Z,89.47
2017-12-20T03:35:52.053Z,89.47
2017-12-20T03:37:00.880Z,89.38
2017-12-20T03:38:09.710Z,89.28
2017-12-20T03:39:18.813Z,89.28
2017-12-20T03:40:27.642Z,89.47
2017-12-20T03:41:36.468Z,89.57
2017-12-20T03:42:45.726Z,89.28
2017-12-20T03:43:54.556Z,89.47
2017-12-20T03:45:03.384Z,89.47
2017-12-20T03:46:12.211Z,89.57
2017-12-20T03:47:21.042Z,89.57
2017-12-20T03:48:29.971Z,89.38
2017-12-20T03:49:38.796Z,89.38
2017-12-20T03:50:47.627Z,89.47
2017-12-20T03:51:56.457Z,89.57
2017-12-20T03:53:05.286Z,89.09
2017-12-20T03:54:14.316Z,89.28
2017-12-20T03:55:23.422Z,89.57
2017-12-20T03:56:32.254Z,89.19
2017-12-20T03:57:41.083Z,89.57
2017-12-20T03:58:50.184Z,89.38
2017-12-20T03:59:59.261Z,89.14
2017-12-20T04:01:08.089Z,89.38
2017-12-20T04:02:17.192Z,89.28
2017-12-20T04:03:26.021Z,89.47
2017-12-20T04:04:35.128Z,89.28
2017-12-20T04:05:43.954Z,89.57
2017-12-20T04:06:52.782Z,89.38
2017-12-20T04:08:01.611Z,89.28
2017-12-20T04:09:10.439Z,89.14
2017-12-20T04:10:19.271Z,89.47
2017-12-20T04:11:28.246Z,89.28
2017-12-20T04:12:37.077Z,89.38
2017-12-20T04:13:45.907Z,89.47
2017-12-20T04:14:54.738Z,89.28
2017-12-20T04:16:03.566Z,89.28
2017-12-20T04:17:12.644Z,89.38
2017-12-20T04:18:21.474Z,89.38
2017-12-20T04:19:30.302Z,89.38
2017-12-20T04:20:39.131Z,89.43
2017-12-20T04:21:47.956Z,89.43
2017-12-20T04:22:56.885Z,89.47
2017-12-20T04:24:05.716Z,89.57
2017-12-20T04:25:14.542Z,89.28
2017-12-20T04:26:23.369Z,89.43
2017-12-20T04:27:32.204Z,89.09
2017-12-20T04:28:41.450Z,89
2017-12-20T04:29:50.276Z,89
2017-12-20T04:30:59.108Z,88.62
2017-12-20T04:32:07.938Z,89.38
2017-12-20T04:33:16.771Z,89.09
2017-12-20T04:34:25.927Z,89.09
2017-12-20T04:35:34.755Z,89.19
2017-12-20T04:36:43.581Z,89.19
2017-12-20T04:37:52.409Z,89.09
2017-12-20T04:39:01.284Z,89.09
2017-12-20T04:40:10.118Z,88.9
2017-12-20T04:41:18.942Z,89
2017-12-20T04:42:27.770Z,89.09
2017-12-20T04:43:36.599Z,89.38
2017-12-20T04:44:45.705Z,88.9
2017-12-20T04:45:54.685Z,88.9
2017-12-20T04:47:03.513Z,89
2017-12-20T04:48:12.338Z,89.38
2017-12-20T04:49:21.169Z,89
2017-12-20T04:50:29.995Z,89.19
2017-12-20T04:51:38.975Z,89.19
2017-12-20T04:52:47.803Z,89.09
2017-12-20T04:53:56.631Z,89.57
2017-12-20T04:55:05.734Z,89.19
2017-12-20T04:56:14.564Z,89
2017-12-20T04:57:23.692Z,89.09
2017-12-20T04:58:32.521Z,89.19
2017-12-20T04:59:41.347Z,89.05
2017-12-20T05:00:50.177Z,89.28
2017-12-20T05:01:59.281Z,89.05
2017-12-20T05:03:08.209Z,88.53
2017-12-20T05:04:17.038Z,88.9
2017-12-20T05:05:25.865Z,88.9
2017-12-20T05:06:34.694Z,88.9
2017-12-20T05:07:43.532Z,88.81
2017-12-20T05:08:52.654Z,89.09
2017-12-20T05:10:01.484Z,88.71
2017-12-20T05:11:10.311Z,88.9
2017-12-20T05:12:19.142Z,88.71
2017-12-20T05:13:27.966Z,88.9
2017-12-20T05:14:36.794Z,89
2017-12-20T05:15:45.620Z,88.9
2017-12-20T05:16:54.451Z,88.81
2017-12-20T05:18:03.550Z,88.81
2017-12-20T05:19:12.376Z,88.71
2017-12-20T05:20:21.252Z,88.43
2017-12-20T05:21:30.359Z,88.71
2017-12-20T05:22:39.186Z,88.62
2017-12-20T05:23:48.011Z,88.71
2017-12-20T05:24:56.838Z,88.67
2017-12-20T05:26:05.967Z,88.2
2017-12-20T05:27:14.794Z,88.1
2017-12-20T05:28:23.621Z,88.34
2017-12-20T05:29:32.452Z,88.29
2017-12-20T05:30:41.280Z,88.39
2017-12-20T05:31:50.308Z,88.39
2017-12-20T05:32:59.139Z,88.48
2017-12-20T05:34:07.970Z,87.82
2017-12-20T05:35:16.849Z,87.62
2017-12-20T05:36:25.625Z,87.72
2017-12-20T05:37:34.455Z,87.43
2017-12-20T05:38:43.558Z,87.53
2017-12-20T05:39:52.386Z,87.53
2017-12-20T05:41:01.213Z,87.53
2017-12-20T05:42:10.043Z,87.43
2017-12-20T05:43:18.875Z,87.62
2017-12-20T05:44:27.702Z,87.53
2017-12-20T05:45:36.529Z,87.34
2017-12-20T05:46:45.359Z,87.53
2017-12-20T05:47:54.185Z,87.34
2017-12-20T05:49:03.013Z,87.24
2017-12-20T05:50:11.843Z,87.38
2017-12-20T05:51:20.672Z,87.53
2017-12-20T05:52:29.781Z,87.34
2017-12-20T05:53:38.610Z,87.24
2017-12-20T05:54:47.439Z,86.87
2017-12-20T05:55:56.270Z,87.15
2017-12-20T05:57:05.100Z,87.1
2017-12-20T05:58:13.930Z,86.77
2017-12-20T05:59:22.760Z,87.05
2017-12-20T06:00:31.581Z,87.05
2017-12-20T06:01:40.410Z,87.24
2017-12-20T06:02:49.540Z,87.05
2017-12-20T06:03:58.370Z,87.34
2017-12-20T06:05:07.475Z,87.05
2017-12-20T06:06:16.303Z,87.19
2017-12-20T06:07:25.180Z,87.1
2017-12-20T06:08:34.589Z,87.1
2017-12-20T06:09:43.419Z,87.1
2017-12-20T06:10:52.249Z,87.19
2017-12-20T06:12:01.079Z,87.29
2017-12-20T06:13:09.911Z,87.38
2017-12-20T06:14:18.790Z,87.48
2017-12-20T06:15:27.618Z,87.29
2017-12-20T06:16:36.450Z,87.29
2017-12-20T06:17:45.561Z,87.19
2017-12-20T06:18:54.659Z,87.48
2017-12-20T06:20:03.587Z,87.1
2017-12-20T06:21:12.416Z,87.1
2017-12-20T06:22:21.246Z,87.38
2017-12-20T06:23:30.074Z,86.49
2017-12-20T06:24:38.907Z,86.63
2017-12-20T06:25:47.733Z,86.3
2017-12-20T06:26:56.857Z,87.15
2017-12-20T06:28:05.692Z,86.49
2017-12-20T06:29:14.530Z,86.77
2017-12-20T06:30:23.354Z,86.39
2017-12-20T06:31:32.182Z,86.39
2017-12-20T06:32:41.010Z,86.43
2017-12-20T06:33:50.119Z,86.49
2017-12-20T06:34:58.948Z,86.63
2017-12-20T06:36:07.777Z,86.34
2017-12-20T06:37:16.631Z,86.05
2017-12-20T06:38:25.433Z,86.53
2017-12-20T06:39:34.263Z,86.24
2017-12-20T06:40:43.089Z,86.53
2017-12-20T06:41:51.917Z,86.63
2017-12-20T06:43:00.746Z,86.05
2017-12-20T06:44:09.572Z,86.15
2017-12-20T06:45:18.398Z,85.77
2017-12-20T06:46:27.509Z,86.24
2017-12-20T06:47:36.334Z,86.24
2017-12-20T06:48:45.433Z,86.15
2017-12-20T06:49:54.263Z,85.77
2017-12-20T06:51:03.091Z,86.05
2017-12-20T06:52:11.919Z,86.15
2017-12-20T06:53:20.745Z,86.15
2017-12-20T06:54:29.573Z,86.05
2017-12-20T06:55:38.402Z,86.24
2017-12-20T06:56:47.235Z,86.05
2017-12-20T06:57:56.066Z,85.86
2017-12-20T06:59:05.172Z,86.24
2017-12-20T07:00:14.003Z,86.15
2017-12-20T07:01:22.832Z,85.96
2017-12-20T07:02:31.982Z,85.96
2017-12-20T07:03:40.811Z,86.34
2017-12-20T07:04:49.639Z,86.53
2017-12-20T07:05:58.754Z,85.96
2017-12-20T07:07:07.582Z,86.24
2017-12-20T07:08:16.559Z,85.77
2017-12-20T07:09:25.386Z,86.05
2017-12-20T07:10:34.217Z,86.05
2017-12-20T07:11:43.047Z,85.96
2017-12-20T07:12:51.876Z,86.05
2017-12-20T07:14:00.703Z,85.96
2017-12-20T07:15:09.531Z,85.77
2017-12-20T07:16:18.362Z,85.77
2017-12-20T07:17:27.191Z,85.86
2017-12-20T07:18:36.020Z,85.77
2017-12-20T07:19:45.050Z,85.86
2017-12-20T07:20:53.878Z,85.77
2017-12-20T07:22:02.707Z,85.96
2017-12-20T07:23:11.535Z,86.05
2017-12-20T07:24:20.364Z,85.86
2017-12-20T07:25:29.491Z,85.86
2017-12-20T07:26:38.333Z,86.05
2017-12-20T07:27:47.488Z,85.91
2017-12-20T07:28:56.346Z,85.77
2017-12-20T07:30:05.381Z,85.86
2017-12-20T07:31:14.358Z,85.86
2017-12-20T07:32:23.319Z,85.96
2017-12-20T07:33:32.696Z,85.96
2017-12-20T07:34:41.578Z,86.05
2017-12-20T07:35:50.684Z,85.96
2017-12-20T07:37:00.342Z,85.96
2017-12-20T07:38:09.483Z,85.77
2017-12-20T07:39:18.767Z,85.86
2017-12-20T07:40:27.684Z,86.24
2017-12-20T07:41:36.699Z,85.96
2017-12-20T07:42:46.065Z,86.15
2017-12-20T07:43:55.577Z,86.05
2017-12-20T07:45:05.068Z,85.96
2017-12-20T07:46:13.961Z,85.96
2017-12-20T07:47:23.004Z,85.86
2017-12-20T07:48:32.355Z,85.86
2017-12-20T07:49:41.527Z,86.05
2017-12-20T07:50:50.468Z,85.86
2017-12-20T07:51:59.446Z,85.96
2017-12-20T07:53:08.286Z,85.96
2017-12-20T07:54:17.239Z,86.05
2017-12-20T07:55:26.087Z,85.96
2017-12-20T07:56:34.984Z,85.49
2017-12-20T07:57:44.064Z,85.58
2017-12-20T07:58:52.895Z,85.39
2017-12-20T08:00:01.976Z,85.58
2017-12-20T08:01:10.803Z,85.58
2017-12-20T08:02:19.631Z,85.96
2017-12-20T08:03:28.459Z,85.68
2017-12-20T08:04:37.287Z,85.49
2017-12-20T08:05:46.167Z,85.49
2017-12-20T08:06:54.994Z,85.49
2017-12-20T08:08:03.822Z,85.58
2017-12-20T08:09:12.652Z,85.68
2017-12-20T08:10:21.478Z,85.63
2017-12-20T08:11:30.608Z,85.68
2017-12-20T08:12:39.434Z,85.44
2017-12-20T08:13:48.266Z,85.77
2017-12-20T08:14:57.093Z,85.58
2017-12-20T08:16:05.921Z,85.77
2017-12-20T08:17:14.746Z,85.77
2017-12-20T08:18:23.575Z,85.3
2017-12-20T08:19:32.404Z,84.97
2017-12-20T08:20:41.234Z,85.68
2017-12-20T08:21:50.346Z,85.49
2017-12-20T08:22:59.173Z,85.11
2017-12-20T08:24:08.003Z,85.2
2017-12-20T08:25:16.832Z,85.3
2017-12-20T08:26:25.663Z,85.2
2017-12-20T08:27:34.496Z,85.49
2017-12-20T08:28:43.585Z,85.3
2017-12-20T08:29:52.672Z,85.01
2017-12-20T08:31:01.508Z,86.05
2017-12-20T08:32:10.336Z,85.39
2017-12-20T08:33:19.164Z,85.3
2017-12-20T08:34:27.994Z,85.11
2017-12-20T08:35:36.824Z,85.3
2017-12-20T08:36:45.660Z,85.39
2017-12-20T08:37:54.490Z,85.3
2017-12-20T08:39:03.600Z,85.39
2017-12-20T08:40:12.683Z,86.05
2017-12-20T08:41:21.514Z,85.39
2017-12-20T08:42:30.341Z,85.3
2017-12-20T08:43:39.169Z,85.39
2017-12-20T08:44:47.998Z,85.49
2017-12-20T08:45:56.928Z,85.39
2017-12-20T08:47:05.756Z,85.49
2017-12-20T08:48:14.585Z,85.49
2017-12-20T08:49:23.415Z,85.39
2017-12-20T08:50:32.245Z,85.39
2017-12-20T08:51:41.474Z,85.11
2017-12-20T08:52:50.300Z,85.3
2017-12-20T08:53:59.128Z,85.3
2017-12-20T08:55:07.955Z,85.49
2017-12-20T08:56:16.782Z,85.2
2017-12-20T08:57:25.912Z,85.11
2017-12-20T08:58:34.742Z,84.72
2017-12-20T08:59:43.571Z,85.49
2017-12-20T09:00:52.400Z,85.11
2017-12-20T09:02:01.231Z,85.49
2017-12-20T09:03:10.211Z,85.11
2017-12-20T09:04:19.039Z,85.39
2017-12-20T09:05:27.869Z,85.49
2017-12-20T09:06:36.699Z,85.39
2017-12-20T09:07:45.801Z,85.49
2017-12-20T09:08:54.679Z,85.3
2017-12-20T09:10:03.508Z,85.3
2017-12-20T09:11:12.337Z,85.3
2017-12-20T09:12:21.166Z,85.39
2017-12-20T09:13:29.996Z,85.11
2017-12-20T09:14:38.826Z,85.3
2017-12-20T09:15:47.656Z,85.49
2017-12-20T09:16:56.486Z,85.49
2017-12-20T09:18:05.314Z,85.39
2017-12-20T09:19:14.142Z,85.39
2017-12-20T09:20:23.280Z,85.49
2017-12-20T09:21:32.382Z,85.3
2017-12-20T09:22:41.213Z,85.58
2017-12-20T09:23:50.040Z,85.39
2017-12-20T09:24:58.870Z,85.11
2017-12-20T09:26:07.750Z,85.3
2017-12-20T09:27:16.576Z,85.39
2017-12-20T09:28:25.403Z,85.2
2017-12-20T09:29:34.230Z,85.39
2017-12-20T09:30:43.057Z,85.2
2017-12-20T09:31:51.941Z,85.01
2017-12-20T09:33:00.767Z,85.3
2017-12-20T09:34:09.596Z,85.3
2017-12-20T09:35:18.426Z,85.3
2017-12-20T09:36:27.255Z,85.11
2017-12-20T09:37:36.191Z,85.49
2017-12-20T09:38:45.300Z,85.3
2017-12-20T09:39:54.132Z,84.91
2017-12-20T09:41:02.963Z,85.3
2017-12-20T09:42:11.791Z,85.58
2017-12-20T09:43:21.021Z,85.01
2017-12-20T09:44:29.850Z,85.11
2017-12-20T09:45:38.677Z,85.3
2017-12-20T09:46:47.505Z,85.2
2017-12-20T09:47:56.373Z,84.72
2017-12-20T09:49:05.161Z,85.01
2017-12-20T09:50:13.990Z,84.72
2017-12-20T09:51:22.820Z,85.49
2017-12-20T09:52:31.657Z,85.3
2017-12-20T09:53:40.481Z,84.91
2017-12-20T09:54:49.409Z,84.82
2017-12-20T09:55:58.240Z,84.91
2017-12-20T09:57:07.068Z,84.91
2017-12-20T09:58:15.897Z,85.11
2017-12-20T09:59:24.726Z,85.2
2017-12-20T10:00:33.656Z,84.82
2017-12-20T10:01:42.486Z,85.2
2017-12-20T10:02:51.317Z,85.11
2017-12-20T10:04:00.147Z,84.82
2017-12-20T10:05:08.976Z,85.11
2017-12-20T10:06:17.957Z,85.01
2017-12-20T10:07:26.784Z,85.2
2017-12-20T10:08:35.887Z,84.91
2017-12-20T10:09:44.716Z,85.24
2017-12-20T10:10:53.547Z,84.91
2017-12-20T10:12:02.424Z,84.95
2017-12-20T10:13:11.253Z,84.95
2017-12-20T10:14:20.083Z,84.95
2017-12-20T10:15:28.915Z,85.15
2017-12-20T10:16:37.744Z,85.24
2017-12-20T10:17:46.622Z,85.15
2017-12-20T10:18:55.452Z,85.24
2017-12-20T10:20:04.282Z,85.24
2017-12-20T10:21:13.120Z,85.34
2017-12-20T10:22:22.224Z,85.15
2017-12-20T10:23:31.204Z,85.15
2017-12-20T10:24:40.309Z,85.53
2017-12-20T10:25:49.136Z,85.34
2017-12-20T10:26:57.967Z,85.24
2017-12-20T10:28:06.797Z,84.77
2017-12-20T10:29:15.679Z,85.15
2017-12-20T10:30:24.510Z,85.53
2017-12-20T10:31:33.336Z,85.53
2017-12-20T10:32:42.169Z,85.24
2017-12-20T10:33:50.999Z,85.34
2017-12-20T10:35:00.227Z,85.24
2017-12-20T10:36:09.057Z,85.3
2017-12-20T10:37:17.886Z,84.72
2017-12-20T10:38:27.267Z,85.11
2017-12-20T10:39:36.097Z,85.34
2017-12-20T10:40:44.976Z,85.15
2017-12-20T10:41:53.807Z,85.24
2017-12-20T10:43:02.638Z,85.34
2017-12-20T10:44:11.467Z,85.15
2017-12-20T10:45:20.297Z,85.15
2017-12-20T10:46:29.526Z,85.15
2017-12-20T10:47:38.362Z,85.24
2017-12-20T10:48:47.191Z,84.95
2017-12-20T10:49:56.023Z,85.24
2017-12-20T10:51:04.852Z,85.15
2017-12-20T10:52:13.832Z,85.05
2017-12-20T10:53:22.933Z,85.15
2017-12-20T10:54:31.762Z,85.15
2017-12-20T10:55:40.593Z,84.95
2017-12-20T10:56:49.698Z,85.05
2017-12-20T10:57:58.527Z,84.86
2017-12-20T10:59:07.630Z,85.05
2017-12-20T11:00:16.477Z,85.34
2017-12-20T11:01:25.286Z,84.77
2017-12-20T11:02:34.115Z,85.34
2017-12-20T11:03:42.991Z,85.05
2017-12-20T11:04:51.822Z,84.95
2017-12-20T11:06:00.921Z,85.05
2017-12-20T11:07:09.753Z,85.24
2017-12-20T11:08:18.863Z,85.24
2017-12-20T11:09:27.843Z,85.05
2017-12-20T11:10:36.673Z,84.58
2017-12-20T11:11:45.508Z,84.77
2017-12-20T11:12:54.611Z,84.95
2017-12-20T11:14:03.439Z,84.77
2017-12-20T11:15:12.420Z,84.77
2017-12-20T11:16:21.250Z,84.95
2017-12-20T11:17:30.081Z,85.24
2017-12-20T11:18:38.909Z,84.95
2017-12-20T11:19:47.738Z,85.24
2017-12-20T11:20:56.867Z,85.15
2017-12-20T11:22:05.696Z,84.95
2017-12-20T11:23:14.528Z,85.05
2017-12-20T11:24:23.360Z,85.15
2017-12-20T11:25:32.189Z,85.24
2017-12-20T11:26:41.167Z,85.24
2017-12-20T11:27:49.997Z,85.24
2017-12-20T11:28:58.827Z,85.24
2017-12-20T11:30:07.659Z,85.15
2017-12-20T11:31:16.489Z,85.24
2017-12-20T11:32:25.373Z,85.24
2017-12-20T11:33:34.475Z,84.77
2017-12-20T11:34:43.305Z,85.24
2017-12-20T11:35:52.416Z,85.15
2017-12-20T11:37:01.245Z,85.24
2017-12-20T11:38:10.230Z,85.05
2017-12-20T11:39:19.055Z,84.95
2017-12-20T11:40:27.882Z,85.24
2017-12-20T11:41:36.711Z,85.24
2017-12-20T11:42:45.541Z,85.24
2017-12-20T11:43:54.698Z,85.05
2017-12-20T11:45:03.527Z,85.15
2017-12-20T11:46:12.352Z,85.15
2017-12-20T11:47:21.456Z,85.05
2017-12-20T11:48:30.288Z,85.24
2017-12-20T11:49:39.219Z,85.24
2017-12-20T11:50:48.045Z,84.95
2017-12-20T11:51:57.150Z,84.95
2017-12-20T11:53:05.980Z,85
2017-12-20T11:54:14.807Z,85
2017-12-20T11:55:24.011Z,85
2017-12-20T11:56:32.845Z,85.1
2017-12-20T11:57:41.944Z,85
2017-12-20T11:58:50.776Z,85.15
2017-12-20T11:59:59.708Z,85.24
2017-12-20T12:01:08.810Z,85.05
2017-12-20T12:02:17.640Z,85.15
2017-12-20T12:03:26.467Z,85.05
2017-12-20T12:04:35.295Z,85.34
2017-12-20T12:05:44.124Z,84.86
2017-12-20T12:06:53.003Z,85.24
2017-12-20T12:08:01.885Z,85.15
2017-12-20T12:09:10.718Z,84.77
2017-12-20T12:10:19.550Z,84.67
2017-12-20T12:11:28.379Z,84.72
2017-12-20T12:12:37.508Z,84.91
2017-12-20T12:13:46.339Z,84.91
2017-12-20T12:14:55.271Z,84.52
2017-12-20T12:16:04.105Z,85
2017-12-20T12:17:13.481Z,84.81
2017-12-20T12:18:22.365Z,84.52
2017-12-20T12:19:31.503Z,84.52
2017-12-20T12:20:40.332Z,84.62
2017-12-20T12:21:49.162Z,84.62
2017-12-20T12:22:57.992Z,84.29
2017-12-20T12:24:06.823Z,84.33
2017-12-20T12:25:15.652Z,84.62
2017-12-20T12:26:24.751Z,84.43
2017-12-20T12:27:33.584Z,84.43
2017-12-20T12:28:42.414Z,84.29
2017-12-20T12:29:51.401Z,84.72
2017-12-20T12:31:00.231Z,84.52
2017-12-20T12:32:09.067Z,84.72
2017-12-20T12:33:17.893Z,84.33
2017-12-20T12:34:26.726Z,84.33
2017-12-20T12:35:35.878Z,84.14
2017-12-20T12:36:44.705Z,84.24
2017-12-20T12:37:53.538Z,84.24
2017-12-20T12:39:02.369Z,84.24
2017-12-20T12:40:11.199Z,84.14
2017-12-20T12:41:20.328Z,84.52
2017-12-20T12:42:29.159Z,84.62
2017-12-20T12:43:37.992Z,84.52
2017-12-20T12:44:47.098Z,84.33
2017-12-20T12:45:55.929Z,84.62
2017-12-20T12:47:05.132Z,84.52
2017-12-20T12:48:13.961Z,84.33
2017-12-20T12:49:22.792Z,84.52
2017-12-20T12:50:31.624Z,84.43
2017-12-20T12:51:40.451Z,84.62
2017-12-20T12:52:49.431Z,84.62
2017-12-20T12:53:58.263Z,84.14
2017-12-20T12:55:07.366Z,84.62
2017-12-20T12:56:16.201Z,84.24
2017-12-20T12:57:25.032Z,84.72
2017-12-20T12:58:34.012Z,84.33
2017-12-20T12:59:42.843Z,84.14
2017-12-20T13:00:51.673Z,84.72
2017-12-20T13:02:00.503Z,84.62
2017-12-20T13:03:09.331Z,84.33
2017-12-20T13:04:18.261Z,84.14
2017-12-20T13:05:27.090Z,84.33
2017-12-20T13:06:35.921Z,84.43
2017-12-20T13:07:44.754Z,84.52
2017-12-20T13:08:53.586Z,84.33
2017-12-20T13:10:02.414Z,84.43
2017-12-20T13:11:11.244Z,84.52
2017-12-20T13:12:20.075Z,84.43
2017-12-20T13:13:28.903Z,84.24
2017-12-20T13:14:37.733Z,84.24
2017-12-20T13:15:46.566Z,84.43
2017-12-20T13:16:55.406Z,84.24
2017-12-20T13:18:04.234Z,84.43
2017-12-20T13:19:13.070Z,84.14
2017-12-20T13:20:21.910Z,84.33
2017-12-20T13:21:30.797Z,84.24
2017-12-20T13:22:39.626Z,84.33
2017-12-20T13:23:48.459Z,84.33
2017-12-20T13:24:57.290Z,84.43
2017-12-20T13:26:06.118Z,84.43
2017-12-20T13:27:15.249Z,84.14
2017-12-20T13:28:24.081Z,84.33
2017-12-20T13:29:33.189Z,84.14
2017-12-20T13:30:42.019Z,84.52
2017-12-20T13:31:50.851Z,84.24
2017-12-20T13:32:59.833Z,84.14
2017-12-20T13:34:08.947Z,84.43
2017-12-20T13:35:17.779Z,84.14
2017-12-20T13:36:26.609Z,84.43
2017-12-20T13:37:35.443Z,84.14
2017-12-20T13:38:44.423Z,84.43
2017-12-20T13:39:53.249Z,84.43
2017-12-20T13:41:02.087Z,84.33
2017-12-20T13:42:10.919Z,84.05
2017-12-20T13:43:20.023Z,84.33
2017-12-20T13:44:28.900Z,84.14
2017-12-20T13:45:37.735Z,84.05
2017-12-20T13:46:46.572Z,84.05
2017-12-20T13:47:55.426Z,84.05
2017-12-20T13:49:04.258Z,83.95
2017-12-20T13:50:13.190Z,84.43
2017-12-20T13:51:22.019Z,84.05
2017-12-20T13:52:31.127Z,84.05
2017-12-20T13:53:39.964Z,84.24
2017-12-20T13:54:49.067Z,83.95
2017-12-20T13:55:57.954Z,84.05
2017-12-20T13:57:06.783Z,83.86
2017-12-20T13:58:15.609Z,83.76
2017-12-20T13:59:24.438Z,84.05
2017-12-20T14:00:33.270Z,84.05
2017-12-20T14:01:42.404Z,84.05
2017-12-20T14:02:51.237Z,84.14
2017-12-20T14:04:00.060Z,84.05
2017-12-20T14:05:08.889Z,83.58
2017-12-20T14:06:17.721Z,83.95
2017-12-20T14:07:26.981Z,83.95
2017-12-20T14:08:35.817Z,83.58
2017-12-20T14:09:44.646Z,83.58
2017-12-20T14:10:53.475Z,83.67
2017-12-20T14:12:02.312Z,83.95
2017-12-20T14:13:11.608Z,83.48
2017-12-20T14:14:20.396Z,83.39
2017-12-20T14:15:29.227Z,83.39
2017-12-20T14:16:38.061Z,83.76
2017-12-20T14:17:46.890Z,83.39
2017-12-20T14:18:56.095Z,83.76
2017-12-20T14:20:04.925Z,83.48
2017-12-20T14:21:13.754Z,83.39
2017-12-20T14:22:22.583Z,83.76
2017-12-20T14:23:31.415Z,83.76
2017-12-20T14:24:40.248Z,83.67
2017-12-20T14:25:49.081Z,83.76
2017-12-20T14:26:57.918Z,83.76
2017-12-20T14:28:06.750Z,83.95
2017-12-20T14:29:15.581Z,83.58
2017-12-20T14:30:24.507Z,83.39
2017-12-20T14:31:33.338Z,83.29
2017-12-20T14:32:42.170Z,83.67
2017-12-20T14:33:50.998Z,83.29
2017-12-20T14:34:59.829Z,83.19
2017-12-20T14:36:08.762Z,83.19
2017-12-20T14:37:17.590Z,83.19
2017-12-20T14:38:26.417Z,83.1
2017-12-20T14:39:35.249Z,82.81
2017-12-20T14:40:44.077Z,82.62
2017-12-20T14:41:53.010Z,82.43
2017-12-20T14:43:01.840Z,82.43
2017-12-20T14:44:10.671Z,82.34
2017-12-20T14:45:19.780Z,82.15
2017-12-20T14:46:28.610Z,82.34
2017-12-20T14:47:37.439Z,81.77
2017-12-20T14:48:46.270Z,81.67
2017-12-20T14:49:55.377Z,81.38
2017-12-20T14:51:04.207Z,81.38